Ride Results

BEER Wynyard Elevated (06-10-2012)
Ride distance: 100.0 km Elevator

Outcomes - BEER Wynyard Elevated (06-10-2012)
Division No. of Entries Retired / DNE Completed Withdrawn Ineligible V/O Percentage Completed
HW 11 5 3 1 - 2 72.73%
MW 28 15 8 1 - 4 82.14%
LW 13 5 7 1 - - 92.31%
JN 13 5 5 - - 3 76.92%
Totals 65 30 23 3 - 9 81.54%
Results - BEER Wynyard Elevated (06-10-2012)
No. Rider Horse Place Time Leg Speeds Total
Km/Hr
H/R bpm
Heavyweight
93 Jeremy Ford Ruby Running Bare 1 6:50:00 17.1, 12.9, 14.1 14.63 38, 47, 53, 59 (Avg:53)
171 Craig Wall Undurra Shahkhan 2 (BC) 6:52:00 15.3, 13.2, 15.9 14.56 32, 48, 49, 53 (Avg:50)
82 Mark Dunn Bella 3 9:12:00 11.7, 10.5, 10.0 10.87 37, 44, 50, 46 (Avg:46)
199 Dennis Foley Jnr Tierview Saahir Retired/DNE L2 5:11:00 19.5, 12.7 15.43 38, 50, 53 (Avg:51)
29 Trenton Huxtable Highland View Barbara Retired/DNE L2 6:59:00 13.3, 10.0 11.46 35, 45, 49 (Avg:47)
247 David Pilgrim Lauralyn Bewitching Retired/DNE L2 7:33:00 10.8, 10.3 10.60 45, 47, 50 (Avg:48)
258 Cassandra Coulter Harry Boy Retired/DNE L2 7:34:01 11.3, 9.9 10.57 41, 45, 49 (Avg:47)
K Greg Henry Bellawongarah Beau Retired/DNE L2 8:36:01 10.3, 8.4 9.30 34, 43, 52 (Avg:47)
22 Helen Astell Soli Lame L1 0:00:00 20.5 - 34, 46 (Avg:46)
18 Sheleah Astell Arcadian Park Merlin Withdrawn L1 0:00:00 - - 39, 44 (Avg:44)
38 Tony Purton Beer Street Dimity Lame L1 0:00:00 18.7 - 34, 47 (Avg:47)
Middleweight
30 Karyn Holden Sandine Ibn Makado 1 (BC) 5:56:00 18.6, 16.6, 14.4 16.85 29, 45, 45, 46 (Avg:45)
266 Sarah Wells Performance Park Riverdance 2 6:52:02 17.9, 13.0, 12.7 14.56 31, 49, 52, 50 (Avg:50)
3 Brenda Hardwicke Cassata Royale 3 6:52:03 17.9, 13.0, 12.7 14.56 38, 45, 50, 53 (Avg:49)
50 Joanne Marshall Rivergum Windchime 4 7:22:01 14.9, 13.2, 11.9 13.57 40, 46, 55, 55 (Avg:52)
179 Debbie Grull Windella Navarre 5 8:29:00 12.9, 11.4, 10.6 11.79 48, 51, 52, 53 (Avg:52)
256 Wendy Smith Sir Angus of Seven Oaks 6 8:32:00 12.6, 11.5, 10.3 11.72 38, 45, 48, 46 (Avg:46)
68 Janine Parr Harmere Natez 7 8:47:00 14.2, 10.9, 8.6 11.39 37, 44, 48, 47 (Avg:46)
188 Leanne Freeman Rokewood Calgary 8 9:32:00 11.3, 9.9, 10.1 10.49 43, 50, 56, 52 (Avg:52)
146 Ricky Febey Alcheringa Shosera Retired/DNE L2 5:18:03 15.6, 14.5 15.09 36, 50, 53 (Avg:51)
255 Cheryle Wall Blackwood Springs Rhapsody Retired/DNE L2 5:37:01 15.3, 13.2 14.24 33, 45, 48 (Avg:46)
51 Debbie Leary Kerrilea Finesse Retired/DNE L2 5:42:02 16.7, 12.0 14.03 35, 49, 50 (Avg:49)
101 Wendy Rand Shayelle Cameo Retired/DNE L2 6:05:00 13.2, 13.0 13.15 39, 44, 53 (Avg:48)
246 Heather Hampson King Park Chanel No 5 Retired/DNE L2 6:19:00 11.7, 13.7 12.66 32, 41, 50 (Avg:45)
48 Alison Colbeck Malricia Salibah Retired/DNE L2 6:29:00 14.9, 10.5 12.34 37, 44, 57 (Avg:50)
219 Robert Crowe Kalody Park Patriack Retired/DNE L2 6:32:00 12.6, 11.8 12.24 44, 54, 57 (Avg:55)
136 Kaye Mitchell Beer Street Willis Retired/DNE L2 6:42:00 13.2, 10.8 11.94 42, 47, 56 (Avg:51)
204 Casey Hayes Davlyn Park Camille Retired/DNE L2 6:43:00 12.3, 11.4 11.91 39, 42, 48 (Avg:45)
259 Judi Leale Enderby Zelenka Retired/DNE L2 7:07:00 11.8, 10.6 11.24 34, 45, 56 (Avg:50)
94 Natalie Humphries Merlin Retired/DNE L2 7:08:00 10.9, 11.5 11.21 43, 49, 58 (Avg:53)
187 Sheleah Astell Costa Zu Retired/DNE L2 7:19:01 11.7, 10.2 10.93 39, 50, 59 (Avg:54)
76 Karin Morris Rivergum Skye Retired/DNE L2 7:33:03 11.2, 9.9 10.59 41, 41, 52 (Avg:46)
269 Korena Armstrong Equus Billy Mop Retired/DNE L2 8:03:00 10.8, 9.1 9.94 42, 47, 52 (Avg:49)
270 Melissa Duniam Militaar Dixie Chick Retired/DNE L2 8:03:01 10.8, 9.1 9.94 47, 49, 53 (Avg:51)
180 Nicole Ford Highland View Steel Lame L3 0:00:00 15.6, 14.5, 15.3 - 37, 47, 46, 46 (Avg:46)
225 Jane Walsh Banda Boozle Lame L3 0:00:00 18.1, 17.1, 18.7 - 34, 42, 46, 44 (Avg:44)
138 Kristen Robertson Kerewong Mingus Lame L2 0:00:00 13.2, 11.3 - 36, 44, 50 (Avg:47)
92 Blaine Astell Splitters Creek Cypress Withdrawn L1 0:00:00 - - 34, 47 (Avg:47)
253 Kelly Woodhouse Crystal Lame L1 0:00:00 14.8 - 34, 44 (Avg:44)
Lightweight
37 Jen Clingly Imaj Zamir 1 (BC) 6:50:00 17.1, 12.9, 14.1 14.63 34, 40, 42, 42 (Avg:41)
6 Christine King Kaban 1 6:50:00 17.1, 12.9, 14.1 14.63 38, 48, 56, 57 (Avg:53)
83 Angie Clark Byrnlea Park Vyrtigo 3 6:52:01 14.5, 13.9, 16.0 14.56 34, 44, 50, 53 (Avg:49)
182 Fran Jordan Tierview Saadat 4 7:22:00 14.9, 13.6, 11.4 13.57 41, 47, 51, 54 (Avg:50)
19 Sonia Hodgetts Sandine Jerez 5 7:33:00 16.7, 12.3, 10.3 13.25 28, 38, 53, 46 (Avg:45)
20 Jodi Smith Highland View Deputy 5 7:33:00 16.7, 12.3, 10.3 13.25 38, 51, 51, 56 (Avg:52)
100 Trish Smith Beaucheval Akhiran 7 8:11:00 14.8, 11.4, 10.0 12.22 34, 44, 54, 54 (Avg:50)
J Tracey Nutting Acaciavej Shadowy Prince Retired/DNE L2 6:12:01 14.8, 11.4 12.90 52, 42, 54 (Avg:48)
231 Andrew Matthews Armani Retired/DNE L2 6:32:01 12.6, 11.8 12.24 41, 43, 53 (Avg:48)
1 Ann Richards Kintamani Shakil Retired/DNE L2 6:58:00 12.5, 10.5 11.48 34, 47, 55 (Avg:51)
90 Angela Hawks Sandine Hustler Retired/DNE L2 7:08:01 10.9, 11.5 11.21 37, 43, 51 (Avg:47)
124 Robyn Nibbs Beer Street Reuben Retired/DNE L2 7:33:02 11.2, 9.9 10.60 38, 42, 42 (Avg:42)
239 Cindy Hogg Seabrook Lodge Stormbreaker Withdrawn L2 0:00:00 - - 33, 48, 47 (Avg:47)
Junior
209 Grace Huxtable Highland View Jess 1 5:35:00 19.5, 16.1, 19.0 17.91 41, 45, 50, 53 (Avg:49)
154 Sarah Parker King Park Aberdeen Pelion 2 (BC) 5:35:01 18.6, 16.7, 19.0 17.91 33, 45, 43, 53 (Avg:47)
190 Alice Mitchell Beer Street Lizzy B 3 5:36:05 18.7, 16.5, 19.0 17.85 39, 44, 49, 48 (Avg:47)
127 Jaz Hutchins Dream Catcher Te 4 8:28:00 11.3, 10.9, 15.7 11.81 42, 43, 48, 49 (Avg:46)
135 Breaana Smith Ebjarah Talismin 5 8:32:00 12.6, 11.5, 10.3 11.72 33, 45, 53, 52 (Avg:50)
264 Ellie Maddick Castlebar Nasa Retired/DNE L2 6:43:01 12.3, 11.4 11.91 35, 42, 50 (Avg:46)
74 Felicity Perry Malricia Delledo Retired/DNE L2 7:12:00 11.3, 10.9 11.11 36, 41, 47 (Avg:44)
203 Ellie Woodhouse Castlebar Mystro Retired/DNE L2 7:12:01 11.3, 10.9 11.11 38, 44, 56 (Avg:50)
162 Ali Smith Lauralyn Imari Retired/DNE L2 7:33:01 10.8, 10.3 10.60 48, 45, 51 (Avg:48)
186 Amelia Napier Bellawongarah Holly Retired/DNE L2 8:36:00 10.3, 8.4 9.30 40, 42, 53 (Avg:47)
125 Brooke Brown-Cordell DJ Afro Jack Lame L2 0:00:00 12.9, 11.4 - 43, 53, 52 (Avg:52)
47 Hannah Colbeck Malricia Frankie Lame L2 0:00:00 14.9, 11.4 - 34, 46, 56 (Avg:51)
226 Hayley Marshall Rowallan Aspin Lame L2 0:00:00 14.9, 13.2 - 40, 49, 49 (Avg:49)